Terminal Aerodrome Forecast
Issued by NWS Birmingham, AL

Home | Current Version | Previous Version | Text Only | Print | Product List | Glossary On
Versions: 1 2 3 4 5 6 7 8 9 10 11 12 13 14 15 16 17 18 19 20 21 22 23 24 25 26 27 28
000
FTUS44 KBMX 180540
TAFBHM
TAF
KBHM 180540Z 1806/1906 02008KT P6SM OVC005
     FM181100 05006KT P6SM OVC012
     FM181500 08005KT P6SM SCT040 BKN090
     FM182000 14006KT P6SM OVC025 PROB30 1820/1901 4SM -RA OVC015
     FM190100 13005KT P6SM BKN050=

USA.gov is the U.S. government's official web portal to all federal, state and local government web resources and services.